Time;durP1;ratioP1;P1;durP2;ratioP2;P2;SDS_P1;SDS_P2;PMS_P1;PMS_P2;Temp;Humidity;BMP_temperature;BMP_pressure;BME280_temperature;BME280_humidity;BME280_pressure;Samples;Min_cycle;Max_cycle;Signal;HPM_P1;HPM_P2
2022/01/02 00:00:09;;;;;;;0.10;0.10;;;;;;;;;;4996326;28;20038;-89
2022/01/02 00:02:35;;;;;;;0.30;0.30;;;;;;;;;;4996597;28;20124;-89
2022/01/02 00:05:26;;;;;;;0.20;0.20;;;;;;;;;;4996447;28;20069;-88
2022/01/02 00:07:52;;;;;;;0.10;0.10;;;;;;;;;;5012479;28;20111;-90
2022/01/02 00:10:18;;;;;;;0.10;0.10;;;;;;;;;;5012807;28;20477;-89
2022/01/02 00:12:45;;;;;;;0.10;0.10;;;;;;;;;;4996471;28;20428;-88
2022/01/02 00:15:11;;;;;;;0.10;0.10;;;;;;;;;;4996292;28;20104;-89
2022/01/02 00:17:37;;;;;;;0.10;0.10;;;;;;;;;;4996260;28;20038;-89
2022/01/02 00:20:10;;;;;;;0.10;0.10;;;;;;;;;;4996209;28;20612;-91
2022/01/02 00:22:39;;;;;;;0.10;0.10;;;;;;;;;;4997326;28;20038;-88
2022/01/02 00:25:11;;;;;;;0.10;0.10;;;;;;;;;;4996046;28;20034;-88
2022/01/02 00:27:38;;;;;;;0.10;0.10;;;;;;;;;;4996726;28;20038;-88
2022/01/02 00:30:04;;;;;;;0.10;0.10;;;;;;;;;;4996139;28;20489;-89
2022/01/02 00:32:30;;;;;;;0.10;0.10;;;;;;;;;;5011760;28;20068;-89
2022/01/02 00:34:56;;;;;;;0.10;0.10;;;;;;;;;;4996006;28;20461;-89
2022/01/02 00:37:22;;;;;;;0.10;0.10;;;;;;;;;;4995847;28;20461;-89
2022/01/02 00:39:48;;;;;;;0.10;0.10;;;;;;;;;;4995980;28;20045;-89
2022/01/02 00:42:15;;;;;;;0.10;0.10;;;;;;;;;;4995995;28;20042;-89
2022/01/02 00:44:45;;;;;;;0.10;0.10;;;;;;;;;;4996039;28;20057;-89
2022/01/02 00:47:11;;;;;;;0.10;0.10;;;;;;;;;;4995047;28;20389;-92
2022/01/02 00:49:41;;;;;;;0.10;0.10;;;;;;;;;;5012046;28;20095;-89
2022/01/02 00:52:27;;;;;;;0.10;0.10;;;;;;;;;;5011731;28;20052;-89
2022/01/02 00:54:53;;;;;;;0.10;0.10;;;;;;;;;;4995553;28;20084;-89
2022/01/02 00:57:19;;;;;;;0.10;0.10;;;;;;;;;;4995655;28;20037;-90
2022/01/02 01:00:18;;;;;;;0.10;0.10;;;;;;;;;;4995675;28;20069;-91
2022/01/02 01:02:45;;;;;;;0.10;0.10;;;;;;;;;;4984821;28;20136;-91
2022/01/02 01:05:11;;;;;;;0.10;0.10;;;;;;;;;;4995665;28;20053;-91
2022/01/02 01:07:38;;;;;;;0.10;0.10;;;;;;;;;;4995575;28;20668;-91
2022/01/02 01:10:07;;;;;;;0.10;0.10;;;;;;;;;;4995539;28;20052;-90
2022/01/02 01:12:32;;;;;;;0.10;0.10;;;;;;;;;;4995877;28;20038;-91
2022/01/02 01:15:00;;;;;;;0.10;0.10;;;;;;;;;;4995420;28;20067;-92
2022/01/02 01:17:26;;;;;;;0.10;0.10;;;;;;;;;;4996221;28;20508;-92
2022/01/02 01:19:53;;;;;;;0.10;0.10;;;;;;;;;;4995668;28;20042;-92
2022/01/02 01:22:19;;;;;;;0.10;0.10;;;;;;;;;;4995550;28;20045;-90
2022/01/02 01:24:45;;;;;;;0.10;0.10;;;;;;;;;;4995065;28;20041;-90
2022/01/02 01:27:11;;;;;;;0.20;0.20;;;;;;;;;;4995041;28;20042;-91
2022/01/02 01:29:37;;;;;;;0.10;0.10;;;;;;;;;;4995099;28;20038;-90
2022/01/02 01:32:06;;;;;;;0.10;0.10;;;;;;;;;;4995054;28;20390;-89
2022/01/02 01:34:33;;;;;;;0.10;0.10;;;;;;;;;;4995084;28;20100;-89
2022/01/02 01:36:59;;;;;;;0.10;0.10;;;;;;;;;;4994809;28;20041;-90
2022/01/02 01:39:25;;;;;;;0.17;0.17;;;;;;;;;;5010995;28;20049;-90
2022/01/02 01:41:52;;;;;;;0.10;0.10;;;;;;;;;;4994805;28;20172;-89
2022/01/02 01:46:45;;;;;;;0.10;0.10;;;;;;;;;;4994839;28;20049;-90
2022/01/02 01:49:15;;;;;;;0.10;0.10;;;;;;;;;;5011114;28;20069;-90
2022/01/02 01:51:42;;;;;;;0.10;0.10;;;;;;;;;;4994519;28;20084;-90
2022/01/02 01:54:08;;;;;;;0.10;0.10;;;;;;;;;;4995219;28;20046;-90
2022/01/02 01:56:34;;;;;;;0.10;0.10;;;;;;;;;;4994788;28;20034;-90
2022/01/02 01:58:59;;;;;;;0.20;0.20;;;;;;;;;;4996322;28;20041;-90
2022/01/02 02:01:28;;;;;;;0.10;0.10;;;;;;;;;;4999351;28;20041;-92
2022/01/02 02:03:54;;;;;;;0.10;0.10;;;;;;;;;;5015308;28;20264;-91
2022/01/02 02:06:20;;;;;;;0.10;0.10;;;;;;;;;;4998648;28;20269;-91
2022/01/02 02:08:47;;;;;;;0.20;0.20;;;;;;;;;;4999059;28;20053;-91
2022/01/02 02:11:13;;;;;;;0.10;0.10;;;;;;;;;;4998782;28;20050;-91
2022/01/02 02:13:39;;;;;;;0.10;0.10;;;;;;;;;;4998948;28;20084;-90
2022/01/02 02:16:05;;;;;;;0.10;0.10;;;;;;;;;;5000356;28;20046;-90
2022/01/02 02:18:31;;;;;;;0.10;0.10;;;;;;;;;;5000076;28;20040;-91
2022/01/02 02:20:57;;;;;;;0.10;0.10;;;;;;;;;;4998605;28;20088;-91
2022/01/02 02:23:23;;;;;;;0.10;0.10;;;;;;;;;;4999076;28;20108;-91
2022/01/02 02:25:49;;;;;;;0.10;0.10;;;;;;;;;;4998910;28;20081;-91
2022/01/02 02:28:15;;;;;;;0.20;0.20;;;;;;;;;;4998622;28;20052;-91
2022/01/02 02:30:43;;;;;;;0.10;0.10;;;;;;;;;;4998453;28;20046;-91
2022/01/02 02:33:09;;;;;;;0.10;0.10;;;;;;;;;;4998794;28;20056;-92
2022/01/02 02:35:35;;;;;;;0.10;0.10;;;;;;;;;;4998648;28;20046;-92
2022/01/02 02:38:01;;;;;;;0.10;0.10;;;;;;;;;;4999215;28;20165;-91
2022/01/02 02:40:28;;;;;;;0.10;0.10;;;;;;;;;;4998800;28;20126;-91
2022/01/02 02:51:27;;;;;;;0.10;0.10;;;;;;;;;;5001218;28;20046;-91
2022/01/02 02:53:54;;;;;;;1.60;0.32;;;;;;;;;;4998787;28;20052;-91
2022/01/02 02:56:26;;;;;;;0.10;0.10;;;;;;;;;;4998019;28;20044;-91
2022/01/02 02:58:55;;;;;;;0.10;0.10;;;;;;;;;;4999092;28;20034;-90
2022/01/02 03:01:22;;;;;;;0.10;0.10;;;;;;;;;;4998441;28;20048;-91
2022/01/02 03:03:48;;;;;;;0.10;0.10;;;;;;;;;;4997923;28;20125;-91
2022/01/02 03:06:14;;;;;;;0.10;0.10;;;;;;;;;;4998113;28;20038;-92
2022/01/02 03:08:41;;;;;;;0.10;0.10;;;;;;;;;;4997958;28;20038;-92
2022/01/02 03:11:09;;;;;;;0.10;0.10;;;;;;;;;;4996959;28;20042;-92
2022/01/02 03:13:36;;;;;;;0.10;0.10;;;;;;;;;;4998293;28;20049;-92
2022/01/02 03:16:02;;;;;;;0.10;0.10;;;;;;;;;;4997576;28;20065;-91
2022/01/02 03:18:28;;;;;;;0.10;0.10;;;;;;;;;;5014242;28;20050;-91
2022/01/02 03:20:54;;;;;;;0.10;0.10;;;;;;;;;;4998176;28;20045;-91
2022/01/02 03:23:19;;;;;;;0.10;0.10;;;;;;;;;;4997946;28;20041;-91
2022/01/02 03:25:46;;;;;;;0.10;0.10;;;;;;;;;;4997724;28;20126;-92
2022/01/02 03:28:11;;;;;;;0.10;0.10;;;;;;;;;;4997370;28;20146;-89
2022/01/02 03:30:37;;;;;;;0.10;0.10;;;;;;;;;;4996924;28;20458;-90
2022/01/02 03:33:03;;;;;;;0.10;0.10;;;;;;;;;;4997121;28;20042;-90
2022/01/02 03:35:29;;;;;;;0.20;0.20;;;;;;;;;;5013270;28;20052;-91
2022/01/02 03:37:55;;;;;;;0.10;0.10;;;;;;;;;;5013368;28;20041;-90
2022/01/02 03:40:21;;;;;;;0.10;0.10;;;;;;;;;;4997013;28;20045;-90
2022/01/02 03:42:47;;;;;;;0.10;0.10;;;;;;;;;;4997085;28;20100;-92
2022/01/02 03:45:14;;;;;;;0.10;0.10;;;;;;;;;;4997231;28;20037;-92
2022/01/02 03:47:40;;;;;;;0.10;0.10;;;;;;;;;;5013253;28;20042;-91
2022/01/02 03:50:06;;;;;;;0.10;0.10;;;;;;;;;;4997126;28;20081;-92
2022/01/02 03:52:32;;;;;;;0.10;0.10;;;;;;;;;;4996699;28;20049;-92
2022/01/02 03:54:59;;;;;;;0.17;0.17;;;;;;;;;;4997018;28;20042;-91
2022/01/02 03:57:25;;;;;;;0.10;0.10;;;;;;;;;;4997075;28;20044;-91
2022/01/02 03:59:51;;;;;;;0.10;0.10;;;;;;;;;;4996782;28;20117;-91
2022/01/02 04:02:17;;;;;;;0.10;0.10;;;;;;;;;;4997148;28;20049;-91
2022/01/02 04:04:43;;;;;;;0.10;0.10;;;;;;;;;;4996798;28;20122;-91
2022/01/02 04:07:09;;;;;;;1.60;1.50;;;;;;;;;;4996751;28;20128;-91
2022/01/02 04:09:35;;;;;;;0.10;0.10;;;;;;;;;;4996680;28;20045;-91
2022/01/02 04:12:01;;;;;;;0.10;0.10;;;;;;;;;;4996452;28;20513;-91
2022/01/02 04:14:27;;;;;;;0.10;0.10;;;;;;;;;;4996896;28;20041;-91
2022/01/02 04:16:53;;;;;;;0.10;0.10;;;;;;;;;;4996271;28;20395;-91
2022/01/02 04:19:19;;;;;;;0.10;0.10;;;;;;;;;;4996673;28;20441;-93
2022/01/02 04:21:45;;;;;;;0.10;0.10;;;;;;;;;;4996478;28;20041;-92
2022/01/02 04:24:11;;;;;;;0.10;0.10;;;;;;;;;;4996859;28;20069;-92
2022/01/02 04:26:37;;;;;;;0.13;0.13;;;;;;;;;;4996655;28;20515;-92
2022/01/02 04:29:05;;;;;;;0.10;0.10;;;;;;;;;;4996622;28;20048;-93
2022/01/02 04:31:31;;;;;;;0.10;0.10;;;;;;;;;;4996603;28;20080;-93
2022/01/02 04:33:57;;;;;;;0.10;0.10;;;;;;;;;;4996289;28;20042;-90
2022/01/02 04:36:23;;;;;;;0.13;0.13;;;;;;;;;;4996191;28;20149;-91
2022/01/02 04:38:50;;;;;;;0.30;0.30;;;;;;;;;;4996580;28;20041;-92
2022/01/02 04:41:16;;;;;;;0.10;0.10;;;;;;;;;;5012380;28;20501;-91
2022/01/02 04:43:42;;;;;;;0.10;0.10;;;;;;;;;;4996327;28;20524;-91
2022/01/02 04:46:08;;;;;;;0.20;0.20;;;;;;;;;;4996036;28;20042;-92
2022/01/02 04:48:34;;;;;;;0.10;0.10;;;;;;;;;;4996693;28;20045;-92
2022/01/02 04:51:00;;;;;;;0.10;0.10;;;;;;;;;;4996103;28;20508;-91
2022/01/02 04:53:26;;;;;;;0.10;0.10;;;;;;;;;;4996129;28;20044;-93
2022/01/02 04:55:52;;;;;;;0.10;0.10;;;;;;;;;;4996691;28;20429;-92
2022/01/02 04:58:18;;;;;;;0.10;0.10;;;;;;;;;;4996008;28;20096;-93
2022/01/02 05:00:45;;;;;;;0.10;0.10;;;;;;;;;;4995990;28;20045;-95
2022/01/02 05:03:11;;;;;;;0.10;0.10;;;;;;;;;;4996115;28;20486;-95
2022/01/02 05:05:37;;;;;;;0.10;0.10;;;;;;;;;;4996381;28;20038;-94
2022/01/02 05:08:03;;;;;;;0.10;0.10;;;;;;;;;;4996673;28;20045;-93
2022/01/02 05:10:29;;;;;;;0.10;0.10;;;;;;;;;;4996704;28;20445;-94
2022/01/02 05:12:55;;;;;;;0.10;0.10;;;;;;;;;;4996085;28;20551;-94
2022/01/02 05:15:22;;;;;;;0.10;0.10;;;;;;;;;;4995784;28;20058;-93
2022/01/02 05:17:48;;;;;;;0.10;0.10;;;;;;;;;;4996306;28;20052;-94
2022/01/02 05:20:13;;;;;;;0.10;0.10;;;;;;;;;;4995899;28;20050;-94
2022/01/02 05:22:40;;;;;;;0.10;0.10;;;;;;;;;;4995644;28;20045;-94
2022/01/02 05:25:06;;;;;;;0.10;0.10;;;;;;;;;;4996062;28;20046;-93
2022/01/02 05:27:32;;;;;;;0.10;0.10;;;;;;;;;;4995949;28;20042;-92
2022/01/02 05:29:58;;;;;;;0.10;0.10;;;;;;;;;;4996004;28;20092;-93
2022/01/02 05:32:24;;;;;;;0.10;0.10;;;;;;;;;;5011774;28;20038;-93
2022/01/02 05:34:50;;;;;;;0.10;0.10;;;;;;;;;;5011690;28;20137;-92
2022/01/02 05:37:16;;;;;;;0.10;0.10;;;;;;;;;;4995518;28;20066;-94
2022/01/02 05:39:43;;;;;;;0.10;0.10;;;;;;;;;;4995791;28;20100;-93
2022/01/02 05:42:09;;;;;;;0.10;0.10;;;;;;;;;;5012084;28;20037;-94
2022/01/02 05:44:35;;;;;;;0.20;0.20;;;;;;;;;;4995601;28;20041;-92
2022/01/02 05:47:01;;;;;;;0.10;0.10;;;;;;;;;;4995860;28;20129;-92
2022/01/02 05:49:27;;;;;;;0.10;0.10;;;;;;;;;;4995503;28;20045;-93
2022/01/02 05:51:53;;;;;;;0.10;0.10;;;;;;;;;;4996128;28;20095;-94
2022/01/02 05:54:19;;;;;;;0.10;0.10;;;;;;;;;;4996930;28;20038;-93
2022/01/02 05:56:45;;;;;;;0.10;0.10;;;;;;;;;;4997269;28;20049;-93
2022/01/02 05:59:11;;;;;;;0.10;0.10;;;;;;;;;;4995888;28;20034;-93
2022/01/02 06:01:37;;;;;;;0.10;0.10;;;;;;;;;;4995720;28;20081;-93
2022/01/02 06:04:03;;;;;;;0.10;0.10;;;;;;;;;;5011864;28;20046;-93
2022/01/02 06:06:29;;;;;;;0.10;0.10;;;;;;;;;;4995617;28;20128;-94
2022/01/02 06:08:55;;;;;;;0.10;0.10;;;;;;;;;;4995723;28;20041;-93
2022/01/02 06:11:21;;;;;;;0.10;0.10;;;;;;;;;;4995449;28;20038;-92
2022/01/02 06:13:47;;;;;;;0.10;0.10;;;;;;;;;;4995496;28;20048;-92
2022/01/02 06:16:13;;;;;;;0.30;0.30;;;;;;;;;;4994945;28;20142;-93
2022/01/02 06:18:39;;;;;;;0.10;0.10;;;;;;;;;;4995741;28;20129;-93
2022/01/02 06:21:06;;;;;;;0.10;0.10;;;;;;;;;;4995130;28;20397;-93
2022/01/02 06:23:32;;;;;;;0.15;0.15;;;;;;;;;;5011655;28;20042;-93
2022/01/02 06:25:58;;;;;;;0.10;0.10;;;;;;;;;;4995249;28;20037;-93
2022/01/02 06:28:24;;;;;;;0.10;0.10;;;;;;;;;;4995283;28;20049;-92
2022/01/02 06:30:50;;;;;;;0.10;0.10;;;;;;;;;;4995253;28;20522;-94
2022/01/02 06:33:16;;;;;;;0.10;0.10;;;;;;;;;;4995540;28;20068;-93
2022/01/02 06:35:42;;;;;;;0.10;0.10;;;;;;;;;;4995407;28;20068;-93
2022/01/02 06:38:12;;;;;;;0.10;0.10;;;;;;;;;;4995064;28;20478;-94
2022/01/02 06:40:38;;;;;;;0.10;0.10;;;;;;;;;;4995396;28;20037;-93
2022/01/02 06:43:04;;;;;;;0.10;0.10;;;;;;;;;;4995029;28;20067;-93
2022/01/02 06:45:32;;;;;;;0.10;0.10;;;;;;;;;;4996452;28;20490;-94
2022/01/02 06:47:59;;;;;;;0.10;0.10;;;;;;;;;;5020622;28;20065;-92
2022/01/02 06:50:25;;;;;;;0.10;0.10;;;;;;;;;;5014727;28;20042;-94
2022/01/02 06:52:51;;;;;;;0.08;0.08;;;;;;;;;;4999111;28;20037;-93
2022/01/02 06:55:17;;;;;;;0.10;0.10;;;;;;;;;;4998724;28;20342;-94
2022/01/02 06:57:43;;;;;;;0.10;0.10;;;;;;;;;;4998649;28;20188;-95
2022/01/02 07:00:11;;;;;;;0.10;0.10;;;;;;;;;;4998170;28;20099;-93
2022/01/02 07:02:37;;;;;;;0.10;0.10;;;;;;;;;;4998584;28;20084;-93
2022/01/02 07:05:03;;;;;;;0.10;0.10;;;;;;;;;;4998621;28;20042;-93
2022/01/02 07:07:31;;;;;;;0.10;0.10;;;;;;;;;;4997959;28;20514;-93
2022/01/02 07:09:57;;;;;;;0.10;0.10;;;;;;;;;;4998571;28;20046;-94
2022/01/02 07:12:23;;;;;;;0.10;0.10;;;;;;;;;;4997949;28;20092;-94
2022/01/02 07:14:50;;;;;;;0.50;0.50;;;;;;;;;;4998997;28;20081;-92
2022/01/02 07:17:16;;;;;;;0.10;0.10;;;;;;;;;;4998281;28;20378;-89
2022/01/02 07:19:42;;;;;;;0.10;0.10;;;;;;;;;;4998159;28;20037;-91
2022/01/02 07:22:08;;;;;;;0.10;0.10;;;;;;;;;;4997875;28;20508;-92
2022/01/02 07:24:34;;;;;;;0.10;0.10;;;;;;;;;;4997761;28;20052;-92
2022/01/02 07:27:03;;;;;;;0.20;0.10;;;;;;;;;;4998105;28;20046;-91
2022/01/02 07:29:29;;;;;;;0.13;0.13;;;;;;;;;;4997918;28;20091;-92
2022/01/02 07:31:55;;;;;;;0.10;0.10;;;;;;;;;;4997542;28;20045;-92
2022/01/02 07:34:21;;;;;;;0.10;0.10;;;;;;;;;;5014057;28;20505;-92
2022/01/02 07:36:47;;;;;;;0.55;0.13;;;;;;;;;;4997275;28;20084;-90
2022/01/02 07:39:13;;;;;;;0.10;0.10;;;;;;;;;;4997475;28;20042;-91
2022/01/02 07:41:40;;;;;;;0.10;0.10;;;;;;;;;;4997433;28;20042;-90
2022/01/02 07:44:06;;;;;;;0.10;0.10;;;;;;;;;;4997631;28;20413;-91
2022/01/02 07:46:35;;;;;;;0.10;0.10;;;;;;;;;;4997392;28;20038;-92
2022/01/02 07:49:01;;;;;;;0.10;0.10;;;;;;;;;;4997627;28;20123;-92
2022/01/02 07:51:27;;;;;;;0.10;0.10;;;;;;;;;;4997215;28;20096;-91
2022/01/02 07:53:53;;;;;;;0.10;0.10;;;;;;;;;;4997457;28;20046;-92
2022/01/02 07:56:19;;;;;;;0.10;0.10;;;;;;;;;;4996804;28;20038;-92
2022/01/02 07:58:45;;;;;;;0.32;0.10;;;;;;;;;;4997615;28;20096;-90
2022/01/02 08:01:11;;;;;;;0.10;0.10;;;;;;;;;;4997764;28;20050;-93
2022/01/02 08:03:37;;;;;;;0.10;0.10;;;;;;;;;;4997237;28;20050;-91
2022/01/02 08:06:03;;;;;;;0.10;0.10;;;;;;;;;;4996898;28;20520;-90
2022/01/02 08:08:29;;;;;;;0.10;0.10;;;;;;;;;;4996639;28;20046;-90
2022/01/02 08:10:55;;;;;;;0.10;0.10;;;;;;;;;;4996098;28;20080;-88
2022/01/02 08:13:21;;;;;;;0.10;0.10;;;;;;;;;;4995945;28;20061;-89
2022/01/02 08:15:49;;;;;;;0.10;0.10;;;;;;;;;;5029300;28;20053;-88
2022/01/02 08:18:15;;;;;;;0.10;0.10;;;;;;;;;;5012696;28;20124;-89
2022/01/02 08:20:41;;;;;;;0.10;0.10;;;;;;;;;;5015885;28;20045;-89
2022/01/02 08:23:10;;;;;;;0.10;0.10;;;;;;;;;;5005053;28;20155;-88
2022/01/02 08:25:36;;;;;;;0.17;0.17;;;;;;;;;;5001119;28;20113;-88
2022/01/02 08:28:02;;;;;;;0.10;0.10;;;;;;;;;;5031522;28;20191;-88
2022/01/02 08:30:28;;;;;;;0.10;0.10;;;;;;;;;;5015801;28;20041;-86
2022/01/02 08:32:55;;;;;;;0.10;0.10;;;;;;;;;;5015367;28;20041;-87
2022/01/02 08:35:20;;;;;;;0.10;0.10;;;;;;;;;;5016343;28;20400;-90
2022/01/02 08:37:46;;;;;;;0.20;0.20;;;;;;;;;;5015684;28;20045;-91
2022/01/02 08:40:12;;;;;;;0.10;0.10;;;;;;;;;;5015819;28;20436;-90
2022/01/02 08:42:38;;;;;;;0.17;0.17;;;;;;;;;;5015726;28;20085;-91
2022/01/02 08:45:05;;;;;;;0.32;0.13;;;;;;;;;;5016014;28;20136;-89
2022/01/02 08:47:31;;;;;;;0.10;0.10;;;;;;;;;;5015966;28;20037;-91
2022/01/02 08:49:57;;;;;;;0.10;0.10;;;;;;;;;;5015387;28;20041;-92
2022/01/02 08:52:23;;;;;;;0.10;0.10;;;;;;;;;;5015524;28;20049;-86
2022/01/02 08:54:49;;;;;;;0.10;0.10;;;;;;;;;;5016151;28;20045;-95
2022/01/02 08:57:15;;;;;;;0.10;0.10;;;;;;;;;;5016439;28;20041;-92
2022/01/02 08:59:41;;;;;;;0.20;0.20;;;;;;;;;;5016115;28;20061;-93
2022/01/02 09:02:07;;;;;;;0.10;0.10;;;;;;;;;;5015504;28;20493;-94
2022/01/02 09:04:34;;;;;;;0.10;0.10;;;;;;;;;;5015663;28;20056;-94
2022/01/02 09:07:01;;;;;;;0.10;0.10;;;;;;;;;;5031957;28;20046;-94
2022/01/02 09:09:27;;;;;;;0.15;0.15;;;;;;;;;;5015380;28;20485;-94
2022/01/02 09:11:53;;;;;;;0.10;0.10;;;;;;;;;;5031990;28;20093;-91
2022/01/02 09:14:28;;;;;;;0.10;0.10;;;;;;;;;;5015794;28;20061;-96
2022/01/02 09:17:02;;;;;;;0.40;0.40;;;;;;;;;;5035513;28;20109;-94
2022/01/02 09:19:29;;;;;;;0.10;0.10;;;;;;;;;;5035970;28;20100;-95
2022/01/02 09:21:55;;;;;;;0.10;0.10;;;;;;;;;;5015599;28;20098;-93
2022/01/02 09:24:24;;;;;;;0.47;0.30;;;;;;;;;;5016537;28;20045;-95
2022/01/02 09:26:50;;;;;;;0.10;0.10;;;;;;;;;;5021574;28;20119;-95
2022/01/02 09:29:16;;;;;;;0.10;0.10;;;;;;;;;;5015561;28;20095;-95
2022/01/02 09:31:42;;;;;;;0.10;0.10;;;;;;;;;;5016145;28;20044;-93
2022/01/02 09:34:08;;;;;;;0.10;0.10;;;;;;;;;;5016152;28;20042;-95
2022/01/02 09:36:34;;;;;;;0.20;0.20;;;;;;;;;;5015082;28;20037;-94
2022/01/02 09:39:00;;;;;;;0.10;0.10;;;;;;;;;;5015553;28;20384;-94
2022/01/02 09:41:26;;;;;;;0.30;0.30;;;;;;;;;;5014921;28;20037;-94
2022/01/02 09:43:52;;;;;;;0.10;0.10;;;;;;;;;;5031513;28;20662;-92
2022/01/02 09:46:20;;;;;;;0.10;0.10;;;;;;;;;;5014907;28;20068;-90
2022/01/02 09:48:46;;;;;;;0.10;0.10;;;;;;;;;;5014401;28;20041;-90
2022/01/02 09:51:12;;;;;;;0.10;0.10;;;;;;;;;;5015013;28;20124;-91
2022/01/02 09:53:38;;;;;;;0.22;0.22;;;;;;;;;;5031164;28;20095;-91
2022/01/02 09:56:11;;;;;;;0.10;0.10;;;;;;;;;;5016498;28;20037;-95
2022/01/02 09:58:38;;;;;;;;;;;;;;;;;;5033046;28;20041;-95
2022/01/02 10:01:04;;;;;;;0.10;0.10;;;;;;;;;;5031369;28;19952;-94
2022/01/02 10:03:41;;;;;;;0.10;0.10;;;;;;;;;;5014650;28;20049;-95
2022/01/02 10:06:07;;;;;;;0.10;0.10;;;;;;;;;;5016792;28;20413;-95
2022/01/02 10:08:36;;;;;;;0.10;0.10;;;;;;;;;;5018963;28;20071;-96
2022/01/02 10:11:18;;;;;;;0.10;0.10;;;;;;;;;;5015476;28;20046;-95
2022/01/02 10:13:45;;;;;;;0.10;0.10;;;;;;;;;;5016644;28;20155;-96
2022/01/02 10:16:25;;;;;;;0.17;0.17;;;;;;;;;;5032396;28;20056;-95
2022/01/02 10:18:52;;;;;;;0.15;0.15;;;;;;;;;;5014801;28;20041;-91
2022/01/02 10:21:33;;;;;;;0.10;0.10;;;;;;;;;;4998757;28;20121;-90
2022/01/02 10:24:09;;;;;;;0.10;0.10;;;;;;;;;;5014806;28;20095;-90
2022/01/02 10:26:35;;;;;;;0.10;0.10;;;;;;;;;;4998468;28;20056;-91
2022/01/02 10:29:03;;;;;;;0.10;0.10;;;;;;;;;;4998306;28;20046;-90
2022/01/02 10:31:30;;;;;;;0.10;0.10;;;;;;;;;;4998039;28;20046;-91
2022/01/02 10:33:57;;;;;;;0.10;0.10;;;;;;;;;;4998395;28;20073;-92
2022/01/02 10:36:33;;;;;;;0.17;0.17;;;;;;;;;;5016753;28;20041;-88
2022/01/02 10:39:08;;;;;;;0.10;0.10;;;;;;;;;;5033963;28;20614;-89
2022/01/02 10:41:35;;;;;;;0.10;0.10;;;;;;;;;;5017698;28;20041;-88
2022/01/02 10:44:20;;;;;;;0.10;0.10;;;;;;;;;;5017750;28;20129;-91
2022/01/02 10:47:05;;;;;;;0.20;0.20;;;;;;;;;;5034481;28;20126;-91
2022/01/02 10:49:47;;;;;;;0.30;0.30;;;;;;;;;;5017601;28;20394;-91
2022/01/02 10:52:33;;;;;;;0.10;0.10;;;;;;;;;;5034202;28;20046;-90
2022/01/02 10:55:00;;;;;;;0.10;0.10;;;;;;;;;;5022371;28;20180;-92
2022/01/02 10:57:26;;;;;;;0.10;0.10;;;;;;;;;;5045003;28;20049;-94
2022/01/02 10:59:55;;;;;;;0.10;0.10;;;;;;;;;;5025204;28;20076;-92
2022/01/02 11:02:21;;;;;;;0.10;0.10;;;;;;;;;;5017955;28;20507;-93
2022/01/02 11:04:52;;;;;;;0.15;0.15;;;;;;;;;;5017802;28;20041;-91
2022/01/02 11:07:23;;;;;;;0.10;0.10;;;;;;;;;;5018558;28;20041;-96
2022/01/02 11:09:53;;;;;;;0.30;0.30;;;;;;;;;;5033565;28;20293;-90
2022/01/02 11:12:19;;;;;;;0.10;0.10;;;;;;;;;;5017063;28;20087;-91
2022/01/02 11:14:46;;;;;;;0.10;0.10;;;;;;;;;;5017275;28;20079;-91
2022/01/02 11:17:15;;;;;;;0.10;0.10;;;;;;;;;;5017293;28;20122;-91
2022/01/02 11:19:41;;;;;;;0.10;0.10;;;;;;;;;;5033812;28;20041;-91
2022/01/02 11:22:11;;;;;;;0.15;0.15;;;;;;;;;;5017390;28;20440;-91
2022/01/02 11:24:39;;;;;;;0.10;0.10;;;;;;;;;;5033626;28;20174;-92
2022/01/02 11:27:13;;;;;;;0.10;0.10;;;;;;;;;;5017484;28;20132;-91
2022/01/02 11:29:38;;;;;;;0.20;0.20;;;;;;;;;;5007985;28;20041;-91
2022/01/02 11:32:40;;;;;;;0.25;0.20;;;;;;;;;;4996182;28;20042;-92
2022/01/02 11:35:19;;;;;;;0.20;0.20;;;;;;;;;;4980029;28;20048;-91
2022/01/02 11:37:52;;;;;;;0.10;0.10;;;;;;;;;;4979184;28;20050;-91
2022/01/02 11:40:18;;;;;;;0.10;0.10;;;;;;;;;;4997628;28;20152;-93
2022/01/02 11:42:45;;;;;;;0.10;0.10;;;;;;;;;;4997241;28;20140;-93
2022/01/02 11:45:23;;;;;;;0.20;0.20;;;;;;;;;;5016686;28;20041;-94
2022/01/02 11:47:49;;;;;;;0.20;0.20;;;;;;;;;;5016662;28;20041;-92
2022/01/02 11:50:43;;;;;;;0.10;0.10;;;;;;;;;;5000866;28;20037;-93
2022/01/02 11:53:12;;;;;;;0.10;0.10;;;;;;;;;;5016757;28;20099;-93
2022/01/02 11:55:39;;;;;;;0.80;0.40;;;;;;;;;;5016421;28;20048;-93
2022/01/02 11:58:05;;;;;;;0.30;0.30;;;;;;;;;;5000256;28;20042;-92
2022/01/02 12:00:35;;;;;;;0.10;0.10;;;;;;;;;;5000318;28;20043;-92
2022/01/02 12:03:02;;;;;;;0.10;0.10;;;;;;;;;;5000084;28;20037;-93
2022/01/02 12:05:28;;;;;;;0.17;0.17;;;;;;;;;;4996886;28;20049;-92
2022/01/02 12:07:53;;;;;;;0.20;0.20;;;;;;;;;;4996923;28;20050;-90
2022/01/02 12:10:20;;;;;;;0.20;0.20;;;;;;;;;;4996409;28;20038;-90
2022/01/02 12:13:22;;;;;;;0.10;0.10;;;;;;;;;;4996363;28;20053;-91
2022/01/02 12:15:48;;;;;;;0.10;0.10;;;;;;;;;;5012376;28;20441;-91
2022/01/02 12:18:31;;;;;;;0.10;0.10;;;;;;;;;;5012488;28;20042;-92
2022/01/02 12:21:00;;;;;;;0.10;0.10;;;;;;;;;;4997945;28;20473;-91
2022/01/02 12:23:33;;;;;;;0.28;0.28;;;;;;;;;;5027429;28;20124;-91
2022/01/02 12:25:59;;;;;;;0.10;0.10;;;;;;;;;;5015415;28;20485;-92
2022/01/02 12:28:25;;;;;;;0.30;0.30;;;;;;;;;;4995926;28;20050;-92
2022/01/02 12:30:54;;;;;;;0.10;0.10;;;;;;;;;;4996449;28;20342;-91
2022/01/02 12:33:24;;;;;;;0.10;0.10;;;;;;;;;;4996691;28;20038;-94
2022/01/02 12:35:50;;;;;;;0.10;0.10;;;;;;;;;;4996897;28;20038;-90
2022/01/02 12:38:16;;;;;;;0.10;0.10;;;;;;;;;;4996342;28;20044;-94
2022/01/02 12:40:42;;;;;;;0.10;0.10;;;;;;;;;;4999398;28;20073;-92
2022/01/02 12:43:11;;;;;;;0.10;0.10;;;;;;;;;;4999060;28;20124;-93
2022/01/02 12:45:37;;;;;;;0.20;0.20;;;;;;;;;;4999279;28;20037;-89
2022/01/02 12:48:03;;;;;;;0.10;0.10;;;;;;;;;;4999062;28;20061;-90
2022/01/02 12:50:29;;;;;;;0.10;0.10;;;;;;;;;;5015056;28;20064;-89
2022/01/02 12:52:56;;;;;;;0.17;0.17;;;;;;;;;;4998920;28;20167;-94
2022/01/02 12:55:22;;;;;;;0.10;0.10;;;;;;;;;;4999317;28;20040;-94
2022/01/02 12:57:49;;;;;;;0.10;0.10;;;;;;;;;;4999561;28;20045;-93
2022/01/02 13:00:15;;;;;;;0.10;0.10;;;;;;;;;;4999874;28;20037;-92
2022/01/02 13:02:41;;;;;;;0.20;0.20;;;;;;;;;;4999997;28;20048;-90
2022/01/02 13:05:07;;;;;;;0.10;0.10;;;;;;;;;;5015129;28;20041;-93
2022/01/02 13:07:37;;;;;;;0.52;0.52;;;;;;;;;;4999048;28;20045;-90
2022/01/02 13:10:04;;;;;;;0.17;0.17;;;;;;;;;;4998382;28;20068;-89
2022/01/02 13:12:30;;;;;;;0.10;0.10;;;;;;;;;;5030859;28;20049;-91
2022/01/02 13:15:00;;;;;;;0.10;0.10;;;;;;;;;;4998026;28;20068;-89
2022/01/02 13:17:30;;;;;;;0.32;0.32;;;;;;;;;;4998286;28;20080;-90
2022/01/02 13:20:10;;;;;;;0.10;0.10;;;;;;;;;;5014822;28;20059;-89
2022/01/02 13:22:39;;;;;;;0.10;0.10;;;;;;;;;;4998099;28;20049;-89
2022/01/02 13:25:10;;;;;;;0.10;0.10;;;;;;;;;;4997382;28;20080;-89
2022/01/02 13:27:46;;;;;;;0.45;0.20;;;;;;;;;;5014179;28;20262;-90
2022/01/02 13:30:16;;;;;;;0.10;0.10;;;;;;;;;;4994188;28;20578;-90
2022/01/02 13:32:43;;;;;;;1.55;0.55;;;;;;;;;;5010886;28;20049;-89
2022/01/02 13:35:10;;;;;;;0.10;0.10;;;;;;;;;;5011164;28;20042;-89
2022/01/02 13:37:37;;;;;;;0.70;0.70;;;;;;;;;;5027507;28;20034;-90
2022/01/02 13:40:04;;;;;;;0.10;0.10;;;;;;;;;;5010926;28;20397;-90
2022/01/02 13:42:38;;;;;;;0.10;0.10;;;;;;;;;;5011228;28;20049;-90
2022/01/02 13:45:07;;;;;;;0.10;0.10;;;;;;;;;;5027485;28;20045;-90
2022/01/02 13:47:34;;;;;;;0.10;0.10;;;;;;;;;;5011271;28;20535;-90
2022/01/02 13:50:00;;;;;;;0.38;0.20;;;;;;;;;;5011466;28;20181;-90
2022/01/02 13:52:26;;;;;;;0.10;0.10;;;;;;;;;;5035225;28;20041;-90
2022/01/02 13:54:54;;;;;;;0.10;0.10;;;;;;;;;;5013599;28;20034;-89
2022/01/02 13:57:20;;;;;;;0.10;0.10;;;;;;;;;;5014700;28;20171;-92
2022/01/02 13:59:46;;;;;;;0.55;0.55;;;;;;;;;;5014977;28;20124;-92
2022/01/02 14:02:13;;;;;;;0.10;0.10;;;;;;;;;;5014589;28;20128;-93
2022/01/02 14:05:12;;;;;;;1.27;0.25;;;;;;;;;;5016061;28;20052;-90
2022/01/02 14:07:39;;;;;;;0.10;0.10;;;;;;;;;;5031071;28;20042;-93
2022/01/02 14:10:05;;;;;;;0.10;0.10;;;;;;;;;;5014868;28;20103;-88
2022/01/02 14:12:34;;;;;;;0.10;0.10;;;;;;;;;;5014013;28;20148;-88
2022/01/02 14:15:18;;;;;;;0.10;0.10;;;;;;;;;;5015256;28;20046;-95
2022/01/02 14:17:45;;;;;;;0.10;0.10;;;;;;;;;;5015937;28;20037;-94
2022/01/02 14:20:11;;;;;;;0.22;0.22;;;;;;;;;;5015493;28;20045;-93
2022/01/02 14:22:37;;;;;;;0.10;0.10;;;;;;;;;;5014939;28;20083;-88
2022/01/02 14:25:04;;;;;;;0.10;0.10;;;;;;;;;;5014851;28;20076;-92
2022/01/02 14:27:30;;;;;;;0.10;0.10;;;;;;;;;;5014682;28;20068;-91
2022/01/02 14:29:56;;;;;;;0.10;0.10;;;;;;;;;;5014617;28;20196;-94
2022/01/02 14:32:23;;;;;;;0.10;0.10;;;;;;;;;;5015777;28;20068;-91
2022/01/02 14:34:49;;;;;;;0.10;0.10;;;;;;;;;;5023040;28;20124;-92
2022/01/02 14:37:15;;;;;;;0.20;0.13;;;;;;;;;;5014864;28;20030;-94
2022/01/02 14:39:41;;;;;;;0.10;0.10;;;;;;;;;;5015244;28;20084;-94
2022/01/02 14:42:07;;;;;;;0.10;0.10;;;;;;;;;;5014303;28;20033;-94
2022/01/02 14:44:35;;;;;;;0.10;0.10;;;;;;;;;;5015379;28;20098;-96
2022/01/02 14:47:01;;;;;;;0.10;0.10;;;;;;;;;;5015338;28;20033;-92
2022/01/02 14:49:27;;;;;;;0.10;0.10;;;;;;;;;;5015194;28;20595;-92
2022/01/02 14:51:53;;;;;;;0.10;0.10;;;;;;;;;;5014442;28;20129;-89
2022/01/02 14:54:19;;;;;;;0.10;0.10;;;;;;;;;;5014390;28;20047;-92
2022/01/02 14:56:45;;;;;;;0.10;0.10;;;;;;;;;;5014281;28;20048;-90